Time;durP1;ratioP1;P1;durP2;ratioP2;P2;SDS_P1;SDS_P2;PMS_P1;PMS_P2;Temp;Humidity;BMP_temperature;BMP_pressure;BME280_temperature;BME280_humidity;BME280_pressure;Samples;Min_cycle;Max_cycle;Signal;HPM_P1;HPM_P2
2024/02/10 00:00:56;;;;;;;10.10;7.15;;;;;;;;;;2072636;28;20065;-78
2024/02/10 00:02:16;;;;;;;7.97;6.80;;;;;;;;;;2071906;28;20030;-75
2024/02/10 00:03:35;;;;;;;7.05;6.35;;;;;;;;;;2073794;28;20526;-76
2024/02/10 00:04:56;;;;;;;7.30;6.60;;;;;;;;;;2064476;28;20446;-76
2024/02/10 00:06:15;;;;;;;8.13;7.03;;;;;;;;;;2072803;28;20038;-75
2024/02/10 00:07:34;;;;;;;11.00;6.88;;;;;;;;;;2060125;28;20023;-76
2024/02/10 00:08:53;;;;;;;8.55;6.55;;;;;;;;;;2059298;28;20034;-75
2024/02/10 00:10:12;;;;;;;9.90;6.30;;;;;;;;;;2065131;28;20026;-75
2024/02/10 00:11:31;;;;;;;7.13;6.13;;;;;;;;;;2071624;28;20513;-75
2024/02/10 00:12:51;;;;;;;8.68;6.53;;;;;;;;;;2073970;28;20030;-76
2024/02/10 00:14:11;;;;;;;8.32;6.32;;;;;;;;;;2074520;28;20038;-75
2024/02/10 00:15:30;;;;;;;6.82;6.13;;;;;;;;;;2066837;28;20117;-75
2024/02/10 00:16:50;;;;;;;9.45;6.55;;;;;;;;;;2069591;28;20026;-75
2024/02/10 00:18:10;;;;;;;7.75;6.05;;;;;;;;;;2073938;28;20029;-76
2024/02/10 00:19:29;;;;;;;8.95;6.78;;;;;;;;;;2066969;28;20022;-74
2024/02/10 00:20:50;;;;;;;8.98;6.57;;;;;;;;;;2064500;28;20030;-75
2024/02/10 00:22:09;;;;;;;8.93;6.97;;;;;;;;;;2072412;28;20512;-76
2024/02/10 00:23:28;;;;;;;6.70;6.10;;;;;;;;;;2074204;28;20022;-75
2024/02/10 00:24:48;;;;;;;8.65;6.88;;;;;;;;;;2073531;28;20026;-75
2024/02/10 00:26:07;;;;;;;8.80;6.93;;;;;;;;;;2066575;28;20035;-75
2024/02/10 00:27:26;;;;;;;9.50;6.28;;;;;;;;;;2064357;28;20416;-75
2024/02/10 00:28:45;;;;;;;9.00;6.15;;;;;;;;;;2070058;28;20396;-77
2024/02/10 00:30:04;;;;;;;8.88;6.82;;;;;;;;;;2064353;28;20112;-75
2024/02/10 00:31:24;;;;;;;7.97;6.43;;;;;;;;;;2070577;28;20029;-75
2024/02/10 00:32:43;;;;;;;8.93;6.63;;;;;;;;;;2073285;28;20038;-75
2024/02/10 00:34:02;;;;;;;9.27;7.03;;;;;;;;;;2074172;28;20041;-75
2024/02/10 00:35:24;;;;;;;7.10;5.95;;;;;;;;;;2073443;28;20108;-76
2024/02/10 00:36:44;;;;;;;5.35;4.85;;;;;;;;;;2072854;28;20029;-76
2024/02/10 00:38:04;;;;;;;6.80;5.70;;;;;;;;;;2075323;28;20588;-76
2024/02/10 00:39:23;;;;;;;7.30;6.20;;;;;;;;;;2074022;28;20026;-76
2024/02/10 00:40:42;;;;;;;9.90;5.90;;;;;;;;;;2074038;28;20026;-75
2024/02/10 00:42:01;;;;;;;6.22;5.35;;;;;;;;;;2072217;28;20058;-75
2024/02/10 00:43:20;;;;;;;7.68;5.85;;;;;;;;;;2065783;28;20121;-76
2024/02/10 00:44:42;;;;;;;5.75;5.25;;;;;;;;;;2060236;28;20074;-76
2024/02/10 00:46:06;;;;;;;6.43;4.93;;;;;;;;;;2071580;28;20042;-76
2024/02/10 00:47:25;;;;;;;6.10;5.28;;;;;;;;;;2066034;28;20053;-76
2024/02/10 00:48:47;;;;;;;7.28;5.53;;;;;;;;;;2065918;28;20564;-76
2024/02/10 00:50:06;;;;;;;5.93;4.95;;;;;;;;;;2072251;28;20080;-76
2024/02/10 00:51:30;;;;;;;7.63;5.13;;;;;;;;;;2075803;28;20065;-75
2024/02/10 00:52:49;;;;;;;6.05;5.38;;;;;;;;;;2065098;28;20026;-75
2024/02/10 00:54:09;;;;;;;6.95;5.15;;;;;;;;;;2071572;28;20189;-76
2024/02/10 00:55:30;;;;;;;5.68;5.18;;;;;;;;;;2074647;28;20046;-76
2024/02/10 00:56:48;;;;;;;5.90;5.35;;;;;;;;;;2065240;28;20054;-75
2024/02/10 00:58:08;;;;;;;9.50;5.50;;;;;;;;;;2062083;28;20030;-77
2024/02/10 00:59:28;;;;;;;7.90;5.97;;;;;;;;;;2061074;28;20026;-76
2024/02/10 01:00:47;;;;;;;5.53;4.97;;;;;;;;;;2071803;28;20026;-76
2024/02/10 01:02:08;;;;;;;6.85;5.20;;;;;;;;;;2073300;28;20030;-76
2024/02/10 01:03:27;;;;;;;5.60;4.97;;;;;;;;;;2066035;28;20027;-75
2024/02/10 01:04:46;;;;;;;6.18;5.32;;;;;;;;;;2061931;28;20078;-76
2024/02/10 01:06:08;;;;;;;6.68;5.93;;;;;;;;;;2072098;28;20033;-76
2024/02/10 01:07:26;;;;;;;6.47;4.65;;;;;;;;;;2071659;28;20030;-76
2024/02/10 01:08:50;;;;;;;5.78;5.18;;;;;;;;;;2063279;28;20035;-76
2024/02/10 01:10:09;;;;;;;6.53;4.65;;;;;;;;;;2071570;28;20026;-76
2024/02/10 01:11:31;;;;;;;5.38;4.85;;;;;;;;;;2073690;28;20033;-76
2024/02/10 01:12:51;;;;;;;5.82;5.22;;;;;;;;;;2072088;28;20421;-76
2024/02/10 01:14:10;;;;;;;7.88;4.95;;;;;;;;;;2074369;28;20034;-76
2024/02/10 01:15:30;;;;;;;7.63;5.30;;;;;;;;;;2073947;28;20029;-76
2024/02/10 01:16:49;;;;;;;5.90;5.03;;;;;;;;;;2065329;28;20614;-75
2024/02/10 01:18:10;;;;;;;6.53;5.18;;;;;;;;;;2069736;28;20061;-75
2024/02/10 01:19:29;;;;;;;7.10;5.18;;;;;;;;;;2072749;28;20029;-75
2024/02/10 01:20:48;;;;;;;8.98;5.72;;;;;;;;;;2077181;28;20034;-75
2024/02/10 01:22:07;;;;;;;5.40;4.40;;;;;;;;;;2076008;28;20022;-75
2024/02/10 01:23:26;;;;;;;6.63;5.03;;;;;;;;;;2075282;28;20122;-75
2024/02/10 01:24:45;;;;;;;6.20;5.40;;;;;;;;;;2074753;28;20033;-76
2024/02/10 01:26:05;;;;;;;5.68;4.97;;;;;;;;;;2065180;28;20034;-76
2024/02/10 01:27:27;;;;;;;8.13;5.78;;;;;;;;;;2072449;28;20120;-76
2024/02/10 01:28:47;;;;;;;5.95;5.38;;;;;;;;;;2075421;28;20396;-77
2024/02/10 01:30:07;;;;;;;9.20;5.45;;;;;;;;;;2074573;28;20524;-76
2024/02/10 01:31:26;;;;;;;6.50;5.57;;;;;;;;;;2074607;28;20053;-76
2024/02/10 01:32:45;;;;;;;7.85;4.97;;;;;;;;;;2075247;28;20034;-75
2024/02/10 01:34:04;;;;;;;5.15;4.70;;;;;;;;;;2075135;28;20112;-76
2024/02/10 01:35:23;;;;;;;6.00;5.07;;;;;;;;;;2073247;28;20025;-75
2024/02/10 01:36:43;;;;;;;8.23;5.15;;;;;;;;;;2077035;28;20062;-75
2024/02/10 01:38:03;;;;;;;7.07;5.57;;;;;;;;;;2076796;28;20560;-76
2024/02/10 01:39:21;;;;;;;7.45;4.72;;;;;;;;;;2076278;28;20041;-75
2024/02/10 01:40:42;;;;;;;7.07;5.10;;;;;;;;;;2076279;28;20065;-76
2024/02/10 01:42:01;;;;;;;5.53;4.72;;;;;;;;;;2075230;28;20030;-76
2024/02/10 01:43:20;;;;;;;5.40;4.32;;;;;;;;;;2075319;28;20038;-75
2024/02/10 01:44:43;;;;;;;4.82;4.43;;;;;;;;;;2077001;28;20389;-76
2024/02/10 01:46:02;;;;;;;6.03;4.63;;;;;;;;;;2067516;28;20120;-76
2024/02/10 01:47:21;;;;;;;9.85;5.13;;;;;;;;;;2072861;28;20106;-74
2024/02/10 01:48:44;;;;;;;7.38;5.28;;;;;;;;;;2074312;28;20109;-76
2024/02/10 01:50:04;;;;;;;7.50;5.07;;;;;;;;;;2073771;28;20113;-76
2024/02/10 01:51:23;;;;;;;4.88;4.32;;;;;;;;;;2067547;28;20058;-75
2024/02/10 01:52:43;;;;;;;5.35;4.72;;;;;;;;;;2071546;28;20461;-75
2024/02/10 01:54:03;;;;;;;5.15;4.65;;;;;;;;;;2076685;28;20041;-75
2024/02/10 01:55:23;;;;;;;6.35;4.75;;;;;;;;;;2073138;28;20125;-76
2024/02/10 01:56:42;;;;;;;5.13;4.72;;;;;;;;;;2066713;28;20030;-75
2024/02/10 01:58:05;;;;;;;5.53;4.80;;;;;;;;;;2072783;28;20098;-75
2024/02/10 01:59:24;;;;;;;7.80;5.25;;;;;;;;;;2075179;28;20030;-76
2024/02/10 02:00:44;;;;;;;5.55;5.05;;;;;;;;;;2074470;28;20057;-76
2024/02/10 02:02:04;;;;;;;6.07;4.82;;;;;;;;;;2067412;28;20401;-75
2024/02/10 02:03:26;;;;;;;7.43;5.22;;;;;;;;;;2062389;28;20022;-76
2024/02/10 02:04:45;;;;;;;5.85;4.80;;;;;;;;;;2071016;28;20030;-76
2024/02/10 02:06:05;;;;;;;5.03;4.63;;;;;;;;;;2067629;28;20030;-75
2024/02/10 02:07:23;;;;;;;4.93;4.43;;;;;;;;;;2071710;28;20026;-75
2024/02/10 02:08:47;;;;;;;6.78;5.30;;;;;;;;;;2076323;28;20061;-75
2024/02/10 02:10:08;;;;;;;7.93;5.25;;;;;;;;;;2073622;28;20053;-74
2024/02/10 02:11:30;;;;;;;6.65;5.43;;;;;;;;;;2075333;28;20033;-74
2024/02/10 02:12:50;;;;;;;5.85;5.22;;;;;;;;;;2067794;28;20042;-73
2024/02/10 02:14:10;;;;;;;5.32;4.60;;;;;;;;;;2073957;28;20034;-76
2024/02/10 02:15:30;;;;;;;6.13;5.25;;;;;;;;;;2069788;28;20071;-77
2024/02/10 02:16:49;;;;;;;6.63;5.38;;;;;;;;;;2074788;28;20026;-75
2024/02/10 02:18:09;;;;;;;5.80;5.15;;;;;;;;;;2076264;28;20029;-76
2024/02/10 02:19:29;;;;;;;5.05;4.55;;;;;;;;;;2074734;28;20030;-76
2024/02/10 02:20:49;;;;;;;6.47;5.28;;;;;;;;;;2060295;28;20455;-76
2024/02/10 02:22:12;;;;;;;5.85;5.22;;;;;;;;;;2061222;28;20038;-76
2024/02/10 02:23:31;;;;;;;7.80;5.97;;;;;;;;;;2071892;28;20515;-76
2024/02/10 02:24:50;;;;;;;5.85;5.25;;;;;;;;;;2075144;28;20034;-75
2024/02/10 02:26:09;;;;;;;7.80;5.82;;;;;;;;;;2075175;28;20030;-76
2024/02/10 02:27:29;;;;;;;6.15;5.22;;;;;;;;;;2073170;28;20038;-76
2024/02/10 02:28:47;;;;;;;6.85;5.57;;;;;;;;;;2066454;28;20034;-76
2024/02/10 02:30:06;;;;;;;5.90;5.30;;;;;;;;;;2069659;28;20037;-76
2024/02/10 02:31:26;;;;;;;6.70;5.43;;;;;;;;;;2067923;28;20038;-74
2024/02/10 02:32:44;;;;;;;6.57;5.93;;;;;;;;;;2071410;28;20412;-74
2024/02/10 02:34:04;;;;;;;6.07;5.47;;;;;;;;;;2064759;28;20030;-75
2024/02/10 02:35:23;;;;;;;6.97;5.10;;;;;;;;;;2072955;28;20515;-74
2024/02/10 02:36:42;;;;;;;7.55;5.88;;;;;;;;;;2075306;28;20026;-75
2024/02/10 02:38:03;;;;;;;7.90;5.88;;;;;;;;;;2075817;28;20022;-75
2024/02/10 02:39:22;;;;;;;7.00;5.63;;;;;;;;;;2073642;28;20480;-75
2024/02/10 02:40:42;;;;;;;6.03;5.45;;;;;;;;;;2072046;28;20485;-75
2024/02/10 02:42:05;;;;;;;10.35;6.18;;;;;;;;;;2075628;28;20026;-79
2024/02/10 02:43:24;;;;;;;6.47;5.60;;;;;;;;;;2073256;28;20022;-78
2024/02/10 02:44:44;;;;;;;8.20;5.65;;;;;;;;;;2075156;28;20018;-79
2024/02/10 02:46:06;;;;;;;7.00;5.38;;;;;;;;;;2059847;28;20030;-78
2024/02/10 02:47:25;;;;;;;6.25;5.65;;;;;;;;;;2069468;28;20034;-78
2024/02/10 02:48:44;;;;;;;5.55;5.05;;;;;;;;;;2075886;28;20037;-79
2024/02/10 02:50:04;;;;;;;6.05;5.45;;;;;;;;;;2076977;28;20061;-79
2024/02/10 02:51:24;;;;;;;8.02;6.00;;;;;;;;;;2075122;28;20045;-79
2024/02/10 02:52:43;;;;;;;10.48;5.53;;;;;;;;;;2074387;28;20393;-79
2024/02/10 02:54:04;;;;;;;7.05;5.63;;;;;;;;;;2073976;28;20034;-79
2024/02/10 02:55:23;;;;;;;6.78;5.47;;;;;;;;;;2073101;28;20050;-79
2024/02/10 02:56:44;;;;;;;7.90;6.18;;;;;;;;;;2071600;28;20112;-79
2024/02/10 02:58:09;;;;;;;10.05;5.97;;;;;;;;;;2075058;28;20026;-79
2024/02/10 02:59:28;;;;;;;6.30;5.70;;;;;;;;;;2074080;28;20033;-79
2024/02/10 03:00:47;;;;;;;6.40;5.78;;;;;;;;;;2074088;28;20022;-79
2024/02/10 03:02:06;;;;;;;7.60;5.78;;;;;;;;;;2075330;28;20026;-78
2024/02/10 03:03:25;;;;;;;8.93;5.82;;;;;;;;;;2075171;28;20022;-78
2024/02/10 03:04:44;;;;;;;7.63;5.63;;;;;;;;;;2065782;28;20022;-79
2024/02/10 03:06:03;;;;;;;9.88;5.50;;;;;;;;;;2065493;28;20038;-78
2024/02/10 03:07:22;;;;;;;8.50;5.70;;;;;;;;;;2072801;28;20030;-79
2024/02/10 03:08:45;;;;;;;7.40;5.82;;;;;;;;;;2065424;28;20031;-79
2024/02/10 03:10:05;;;;;;;6.55;5.85;;;;;;;;;;2063505;28;20038;-78
2024/02/10 03:11:26;;;;;;;9.07;5.95;;;;;;;;;;2062634;28;20390;-78
2024/02/10 03:12:48;;;;;;;8.75;6.32;;;;;;;;;;2071885;28;20101;-79
2024/02/10 03:14:07;;;;;;;8.10;6.40;;;;;;;;;;2065378;28;20109;-79
2024/02/10 03:15:27;;;;;;;10.13;6.15;;;;;;;;;;2071435;28;20025;-79
2024/02/10 03:16:46;;;;;;;6.18;5.63;;;;;;;;;;2070804;28;20132;-78
2024/02/10 03:18:05;;;;;;;7.32;5.72;;;;;;;;;;2075524;28;20033;-79
2024/02/10 03:19:24;;;;;;;9.50;6.72;;;;;;;;;;2074257;28;20392;-77
2024/02/10 03:20:44;;;;;;;7.13;5.97;;;;;;;;;;2072497;28;20030;-79
2024/02/10 03:22:03;;;;;;;6.85;6.05;;;;;;;;;;2074311;28;20105;-79
2024/02/10 03:23:22;;;;;;;8.10;6.43;;;;;;;;;;2073734;28;20120;-78
2024/02/10 03:24:47;;;;;;;7.05;6.30;;;;;;;;;;2066116;28;20062;-79
2024/02/10 03:26:06;;;;;;;6.55;5.88;;;;;;;;;;2072700;28;20030;-79
2024/02/10 03:27:25;;;;;;;10.65;6.57;;;;;;;;;;2076703;28;20498;-79
2024/02/10 03:28:44;;;;;;;6.65;6.05;;;;;;;;;;2074383;28;20425;-77
2024/02/10 03:30:03;;;;;;;6.35;5.70;;;;;;;;;;2074137;28;20037;-79
2024/02/10 03:31:22;;;;;;;7.75;5.97;;;;;;;;;;2060155;28;20133;-79
2024/02/10 03:32:42;;;;;;;7.35;5.85;;;;;;;;;;2061071;28;20057;-79
2024/02/10 03:34:01;;;;;;;8.50;6.50;;;;;;;;;;2072060;28;20073;-79
2024/02/10 03:35:21;;;;;;;10.30;6.43;;;;;;;;;;2074182;28;20564;-79
2024/02/10 03:36:40;;;;;;;7.68;5.18;;;;;;;;;;2075198;28;20029;-78
2024/02/10 03:37:59;;;;;;;7.93;5.85;;;;;;;;;;2075175;28;20488;-79
2024/02/10 03:39:18;;;;;;;7.28;5.75;;;;;;;;;;2074363;28;20400;-78
2024/02/10 03:40:37;;;;;;;8.65;5.65;;;;;;;;;;2074903;28;20021;-79
2024/02/10 03:41:56;;;;;;;6.97;5.28;;;;;;;;;;2074298;28;20145;-77
2024/02/10 03:43:17;;;;;;;6.55;5.32;;;;;;;;;;2074397;28;20069;-77
2024/02/10 03:44:36;;;;;;;6.43;5.82;;;;;;;;;;2076507;28;20030;-77
2024/02/10 03:45:55;;;;;;;6.90;6.20;;;;;;;;;;2058877;28;20449;-78
2024/02/10 03:47:14;;;;;;;10.02;6.38;;;;;;;;;;2066893;28;20493;-75
2024/02/10 03:48:33;;;;;;;11.75;5.57;;;;;;;;;;2067776;28;20070;-78
2024/02/10 03:49:52;;;;;;;5.97;5.45;;;;;;;;;;2070900;28;20502;-77
2024/02/10 03:51:11;;;;;;;6.15;5.32;;;;;;;;;;2074526;28;20037;-78
2024/02/10 03:52:31;;;;;;;6.63;5.32;;;;;;;;;;2065256;28;20026;-78
2024/02/10 03:53:50;;;;;;;5.78;5.22;;;;;;;;;;2070666;28;20397;-81
2024/02/10 03:55:09;;;;;;;6.03;5.13;;;;;;;;;;2075180;28;20226;-78
2024/02/10 03:56:28;;;;;;;7.88;5.43;;;;;;;;;;2074615;28;20013;-78
2024/02/10 03:57:48;;;;;;;7.60;5.43;;;;;;;;;;2075054;28;20029;-78
2024/02/10 03:59:07;;;;;;;6.28;4.85;;;;;;;;;;2074843;28;20113;-77
2024/02/10 04:00:27;;;;;;;8.45;5.38;;;;;;;;;;2075065;28;20061;-78
2024/02/10 04:01:47;;;;;;;5.53;4.63;;;;;;;;;;2072372;28;20021;-79
2024/02/10 04:03:09;;;;;;;8.13;5.40;;;;;;;;;;2059957;28;20039;-78
2024/02/10 04:04:29;;;;;;;7.28;5.38;;;;;;;;;;2069682;28;20030;-80
2024/02/10 04:05:48;;;;;;;6.82;4.93;;;;;;;;;;2076130;28;20387;-79
2024/02/10 04:07:07;;;;;;;5.10;4.60;;;;;;;;;;2065624;28;20461;-79
2024/02/10 04:08:27;;;;;;;4.53;4.13;;;;;;;;;;2068820;28;20030;-80
2024/02/10 04:09:47;;;;;;;5.47;4.28;;;;;;;;;;2066747;28;20030;-79
2024/02/10 04:11:06;;;;;;;9.02;5.20;;;;;;;;;;2073349;28;20030;-79
2024/02/10 04:12:25;;;;;;;5.78;4.65;;;;;;;;;;2075636;28;20026;-81
2024/02/10 04:13:44;;;;;;;7.57;5.25;;;;;;;;;;2073348;28;20349;-79
2024/02/10 04:15:03;;;;;;;5.00;4.60;;;;;;;;;;2074348;28;20480;-79
2024/02/10 04:16:22;;;;;;;5.07;4.43;;;;;;;;;;2075203;28;20030;-79
2024/02/10 04:17:48;;;;;;;6.47;4.30;;;;;;;;;;2074501;28;20013;-79
2024/02/10 04:19:07;;;;;;;6.60;4.57;;;;;;;;;;2072418;28;20397;-79
2024/02/10 04:20:26;;;;;;;5.72;4.50;;;;;;;;;;2072965;28;20512;-79
2024/02/10 04:21:50;;;;;;;8.80;4.82;;;;;;;;;;2075239;28;20034;-75
2024/02/10 04:23:10;;;;;;;7.00;4.88;;;;;;;;;;2075485;28;20387;-76
2024/02/10 04:24:29;;;;;;;6.40;4.47;;;;;;;;;;2074986;28;20022;-79
2024/02/10 04:25:48;;;;;;;4.80;4.38;;;;;;;;;;2075151;28;20077;-79
2024/02/10 04:27:07;;;;;;;6.93;4.45;;;;;;;;;;2072168;28;20400;-79
2024/02/10 04:28:26;;;;;;;6.30;4.80;;;;;;;;;;2075138;28;20037;-78
2024/02/10 04:29:45;;;;;;;9.32;4.80;;;;;;;;;;2065038;28;20034;-79
2024/02/10 04:31:07;;;;;;;6.28;4.75;;;;;;;;;;2070315;28;20042;-79
2024/02/10 04:32:26;;;;;;;4.65;4.25;;;;;;;;;;2066180;28;20042;-78
2024/02/10 04:33:50;;;;;;;5.70;5.07;;;;;;;;;;2071536;28;20545;-78
2024/02/10 04:35:09;;;;;;;5.40;4.65;;;;;;;;;;2064145;28;20029;-77
2024/02/10 04:36:28;;;;;;;4.72;4.22;;;;;;;;;;2062938;28;20030;-78
2024/02/10 04:37:51;;;;;;;5.00;4.28;;;;;;;;;;2062880;28;20520;-78
2024/02/10 04:39:10;;;;;;;4.18;3.55;;;;;;;;;;2070912;28;20064;-79
2024/02/10 04:40:29;;;;;;;8.10;4.68;;;;;;;;;;2065855;28;20021;-78
2024/02/10 04:41:49;;;;;;;5.18;4.30;;;;;;;;;;2072077;28;20105;-78
2024/02/10 04:43:08;;;;;;;7.07;4.35;;;;;;;;;;2073871;28;20120;-78
2024/02/10 04:44:27;;;;;;;4.50;4.13;;;;;;;;;;2066058;28;20030;-80
2024/02/10 04:45:48;;;;;;;6.18;4.72;;;;;;;;;;2070952;28;20037;-79
2024/02/10 04:47:07;;;;;;;5.43;4.57;;;;;;;;;;2075047;28;20029;-80
2024/02/10 04:48:26;;;;;;;8.30;4.00;;;;;;;;;;2065733;28;20505;-79
2024/02/10 04:49:45;;;;;;;4.45;4.05;;;;;;;;;;2061556;28;20065;-80
2024/02/10 04:51:04;;;;;;;4.43;4.05;;;;;;;;;;2063914;28;20517;-79
2024/02/10 04:52:23;;;;;;;7.35;4.18;;;;;;;;;;2066233;28;20448;-80
2024/02/10 04:53:42;;;;;;;5.50;4.18;;;;;;;;;;2074562;28;20017;-81
2024/02/10 04:55:01;;;;;;;4.80;4.28;;;;;;;;;;2074577;28;20046;-80
2024/02/10 04:56:20;;;;;;;10.48;4.22;;;;;;;;;;2076022;28;20029;-81
2024/02/10 04:57:42;;;;;;;4.95;4.05;;;;;;;;;;2076020;28;20026;-79
2024/02/10 04:59:01;;;;;;;7.97;4.07;;;;;;;;;;2071962;28;20100;-79
2024/02/10 05:00:21;;;;;;;5.30;3.85;;;;;;;;;;2071422;28;20033;-80
2024/02/10 05:01:40;;;;;;;5.07;3.55;;;;;;;;;;2069589;28;20120;-75
2024/02/10 05:03:02;;;;;;;4.35;3.50;;;;;;;;;;2077075;28;20223;-74
2024/02/10 05:04:21;;;;;;;7.97;4.03;;;;;;;;;;2068575;28;20105;-74
2024/02/10 05:05:40;;;;;;;5.93;4.30;;;;;;;;;;2072516;28;20079;-74
2024/02/10 05:06:59;;;;;;;5.65;4.50;;;;;;;;;;2076063;28;20034;-75
2024/02/10 05:08:18;;;;;;;5.28;4.28;;;;;;;;;;2075707;28;20034;-76
2024/02/10 05:09:37;;;;;;;4.10;3.70;;;;;;;;;;2077546;28;20030;-74
2024/02/10 05:10:56;;;;;;;4.07;3.38;;;;;;;;;;2076864;28;20065;-74
2024/02/10 05:12:15;;;;;;;6.65;4.07;;;;;;;;;;2066354;28;20039;-74
2024/02/10 05:13:34;;;;;;;3.78;3.38;;;;;;;;;;2073087;28;20026;-74
2024/02/10 05:14:54;;;;;;;5.72;3.75;;;;;;;;;;2075716;28;20126;-74
2024/02/10 05:16:17;;;;;;;6.20;3.95;;;;;;;;;;2074913;28;20120;-74
2024/02/10 05:17:42;;;;;;;3.90;3.60;;;;;;;;;;2076179;28;20022;-76
2024/02/10 05:19:02;;;;;;;3.60;3.22;;;;;;;;;;2077753;28;20057;-74
2024/02/10 05:20:24;;;;;;;3.92;3.58;;;;;;;;;;2073981;28;20066;-73
2024/02/10 05:21:43;;;;;;;7.95;3.90;;;;;;;;;;2077050;28;20029;-74
2024/02/10 05:23:02;;;;;;;4.93;3.55;;;;;;;;;;2077378;28;20555;-74
2024/02/10 05:24:22;;;;;;;7.15;3.88;;;;;;;;;;2075623;28;20017;-74
2024/02/10 05:25:41;;;;;;;4.32;3.58;;;;;;;;;;2077024;28;20057;-74
2024/02/10 05:27:02;;;;;;;5.32;3.90;;;;;;;;;;2077288;28;20041;-74
2024/02/10 05:28:25;;;;;;;5.03;3.75;;;;;;;;;;2076284;28;20120;-74
2024/02/10 05:29:46;;;;;;;13.25;4.10;;;;;;;;;;2075966;28;20030;-74
2024/02/10 05:31:04;;;;;;;6.40;3.75;;;;;;;;;;2067030;28;20505;-74
2024/02/10 05:32:24;;;;;;;4.55;3.72;;;;;;;;;;2073023;28;20029;-73
2024/02/10 05:33:46;;;;;;;4.93;3.83;;;;;;;;;;2074626;28;20061;-74
2024/02/10 05:35:10;;;;;;;5.63;4.10;;;;;;;;;;2075699;28;20022;-73
2024/02/10 05:36:34;;;;;;;4.30;3.88;;;;;;;;;;2075416;28;20025;-74
2024/02/10 05:37:53;;;;;;;3.88;3.42;;;;;;;;;;2061167;28;20108;-74
2024/02/10 05:39:14;;;;;;;6.32;3.95;;;;;;;;;;2069232;28;20034;-74
2024/02/10 05:40:33;;;;;;;4.38;3.78;;;;;;;;;;2076636;28;20062;-73
2024/02/10 05:41:53;;;;;;;5.35;3.67;;;;;;;;;;2067266;28;20026;-74
2024/02/10 05:43:14;;;;;;;7.40;4.30;;;;;;;;;;2073206;28;20025;-74
2024/02/10 05:44:33;;;;;;;6.00;4.07;;;;;;;;;;2075433;28;20026;-73
2024/02/10 05:45:53;;;;;;;4.32;3.63;;;;;;;;;;2074247;28;20038;-74
2024/02/10 05:47:13;;;;;;;7.10;4.18;;;;;;;;;;2075937;28;20377;-74
2024/02/10 05:48:32;;;;;;;5.78;3.63;;;;;;;;;;2074578;28;20025;-73
2024/02/10 05:49:51;;;;;;;4.00;3.42;;;;;;;;;;2073263;28;20943;-74
2024/02/10 05:51:11;;;;;;;4.75;3.38;;;;;;;;;;2075709;28;20046;-76
2024/02/10 05:52:34;;;;;;;5.40;3.97;;;;;;;;;;2074730;28;20037;-73
2024/02/10 05:53:53;;;;;;;6.45;3.45;;;;;;;;;;2066991;28;20030;-74
2024/02/10 05:55:14;;;;;;;5.20;3.60;;;;;;;;;;2073434;28;20045;-73
2024/02/10 05:56:36;;;;;;;6.43;3.33;;;;;;;;;;2076144;28;20480;-74
2024/02/10 05:57:55;;;;;;;4.38;3.08;;;;;;;;;;2062130;28;20154;-75
2024/02/10 05:59:14;;;;;;;5.30;3.30;;;;;;;;;;2062242;28;20116;-75
2024/02/10 06:00:33;;;;;;;3.83;3.35;;;;;;;;;;2070849;28;20033;-74
2024/02/10 06:01:52;;;;;;;6.88;3.35;;;;;;;;;;2075835;28;20025;-74
2024/02/10 06:03:11;;;;;;;3.97;3.63;;;;;;;;;;2066172;28;20113;-74
2024/02/10 06:04:30;;;;;;;7.35;3.95;;;;;;;;;;2073566;28;20380;-75
2024/02/10 06:05:49;;;;;;;4.72;3.30;;;;;;;;;;2076559;28;20030;-74
2024/02/10 06:07:08;;;;;;;3.85;3.28;;;;;;;;;;2075864;28;20511;-75
2024/02/10 06:08:28;;;;;;;6.28;3.40;;;;;;;;;;2076664;28;20030;-74
2024/02/10 06:09:47;;;;;;;5.28;3.42;;;;;;;;;;2061083;28;20372;-74
2024/02/10 06:11:06;;;;;;;4.50;3.33;;;;;;;;;;2068011;28;20042;-75
2024/02/10 06:12:27;;;;;;;4.68;2.85;;;;;;;;;;2068185;28;20073;-77
2024/02/10 06:13:49;;;;;;;3.85;2.88;;;;;;;;;;2073801;28;20022;-80
2024/02/10 06:15:11;;;;;;;5.75;3.42;;;;;;;;;;2074437;28;20388;-79
2024/02/10 06:16:30;;;;;;;4.10;3.42;;;;;;;;;;2074253;28;20030;-78
2024/02/10 06:17:56;;;;;;;7.05;3.40;;;;;;;;;;2076557;28;20029;-77
2024/02/10 06:19:15;;;;;;;5.32;3.40;;;;;;;;;;2066227;28;20403;-77
2024/02/10 06:20:34;;;;;;;3.88;3.38;;;;;;;;;;2071677;28;20030;-83
2024/02/10 06:21:53;;;;;;;8.70;3.47;;;;;;;;;;2076302;28;20441;-78
2024/02/10 06:23:11;;;;;;;3.28;2.97;;;;;;;;;;2076443;28;20428;-77
2024/02/10 06:24:33;;;;;;;3.88;3.40;;;;;;;;;;2074326;28;21871;-78
2024/02/10 06:25:54;;;;;;;3.20;2.90;;;;;;;;;;2065235;28;20022;-78
2024/02/10 06:27:13;;;;;;;3.92;2.85;;;;;;;;;;2071855;28;20033;-78
2024/02/10 06:28:33;;;;;;;4.68;3.70;;;;;;;;;;2074336;28;20480;-79
2024/02/10 06:29:54;;;;;;;3.78;3.17;;;;;;;;;;2075920;28;20061;-80
2024/02/10 06:31:18;;;;;;;5.15;2.85;;;;;;;;;;2074541;28;20481;-81
2024/02/10 06:32:37;;;;;;;7.45;3.08;;;;;;;;;;2076024;28;20404;-79
2024/02/10 06:33:56;;;;;;;4.03;3.35;;;;;;;;;;2074296;28;20034;-80
2024/02/10 06:35:19;;;;;;;3.78;2.95;;;;;;;;;;2067125;28;20034;-78
2024/02/10 06:36:47;;;;;;;4.60;3.30;;;;;;;;;;2072728;28;20030;-78
2024/02/10 06:38:06;;;;;;;4.90;2.97;;;;;;;;;;2075947;28;20026;-80
2024/02/10 06:39:25;;;;;;;8.88;3.10;;;;;;;;;;2074680;28;20329;-77
2024/02/10 06:40:44;;;;;;;3.10;2.63;;;;;;;;;;2058263;28;20469;-77
2024/02/10 06:42:03;;;;;;;4.65;2.80;;;;;;;;;;2059867;28;20035;-78
2024/02/10 06:43:22;;;;;;;7.55;2.72;;;;;;;;;;2063660;28;20035;-77
2024/02/10 06:44:42;;;;;;;6.35;2.75;;;;;;;;;;2062056;28;20030;-78
2024/02/10 06:46:05;;;;;;;3.30;3.00;;;;;;;;;;2069634;28;20021;-79
2024/02/10 06:47:24;;;;;;;;;;;;;;;;;;2075403;28;20026;-79
2024/02/10 06:48:43;;;;;;;3.78;2.75;;;;;;;;;;2075337;28;19905;-78
2024/02/10 06:50:04;;;;;;;3.13;2.83;;;;;;;;;;2073634;28;20457;-82
2024/02/10 06:51:24;;;;;;;4.97;2.78;;;;;;;;;;2074273;28;20033;-77
2024/02/10 06:52:44;;;;;;;2.75;2.47;;;;;;;;;;2074712;28;20037;-78
2024/02/10 06:54:04;;;;;;;2.38;2.17;;;;;;;;;;2074264;28;20030;-79
2024/02/10 06:55:23;;;;;;;4.10;2.72;;;;;;;;;;2073681;28;20095;-77
2024/02/10 06:56:44;;;;;;;4.68;2.30;;;;;;;;;;2060375;28;20784;-77
2024/02/10 06:58:06;;;;;;;3.38;2.30;;;;;;;;;;2069700;28;20489;-77
2024/02/10 06:59:26;;;;;;;4.80;2.30;;;;;;;;;;2074751;28;20101;-78
2024/02/10 07:00:46;;;;;;;2.70;2.50;;;;;;;;;;2076412;28;20069;-78
2024/02/10 07:02:06;;;;;;;3.67;2.40;;;;;;;;;;2074950;28;20029;-78
2024/02/10 07:03:26;;;;;;;3.05;2.72;;;;;;;;;;2075951;28;20022;-77
2024/02/10 07:04:52;;;;;;;3.60;2.38;;;;;;;;;;2066669;28;20490;-78
2024/02/10 07:06:17;;;;;;;3.65;2.80;;;;;;;;;;2073162;28;20034;-75
2024/02/10 07:07:39;;;;;;;3.05;2.22;;;;;;;;;;2076375;28;20034;-77
2024/02/10 07:09:04;;;;;;;2.53;2.13;;;;;;;;;;2077365;28;20034;-77
2024/02/10 07:10:24;;;;;;;2.33;1.98;;;;;;;;;;2067352;28;20042;-77
2024/02/10 07:11:43;;;;;;;5.60;2.70;;;;;;;;;;2070900;28;20033;-77
2024/02/10 07:13:04;;;;;;;3.67;2.35;;;;;;;;;;2075099;28;20079;-77
2024/02/10 07:14:23;;;;;;;2.25;1.70;;;;;;;;;;2074037;28;20030;-76
2024/02/10 07:15:42;;;;;;;5.03;2.65;;;;;;;;;;2068839;28;20392;-76
2024/02/10 07:17:01;;;;;;;2.45;1.77;;;;;;;;;;2072908;28;20034;-77
2024/02/10 07:18:20;;;;;;;2.00;1.85;;;;;;;;;;2074405;28;20055;-78
2024/02/10 07:19:42;;;;;;;2.78;2.00;;;;;;;;;;2074181;28;20081;-77
2024/02/10 07:21:01;;;;;;;2.40;2.13;;;;;;;;;;2075477;28;20026;-76
2024/02/10 07:22:25;;;;;;;4.13;2.40;;;;;;;;;;2075432;28;20429;-76
2024/02/10 07:23:44;;;;;;;2.15;1.88;;;;;;;;;;2075383;28;20014;-78
2024/02/10 07:25:04;;;;;;;2.53;2.25;;;;;;;;;;2076028;28;20025;-77
2024/02/10 07:26:23;;;;;;;2.85;1.80;;;;;;;;;;2074195;28;20508;-78
2024/02/10 07:27:45;;;;;;;3.45;1.95;;;;;;;;;;2074483;28;20025;-76
2024/02/10 07:29:05;;;;;;;5.10;2.05;;;;;;;;;;2075528;28;20022;-76
2024/02/10 07:30:24;;;;;;;2.38;2.03;;;;;;;;;;2075981;28;20038;-76
2024/02/10 07:31:45;;;;;;;3.60;1.90;;;;;;;;;;2074012;28;20030;-76
2024/02/10 07:33:12;;;;;;;2.17;1.92;;;;;;;;;;2075473;28;20116;-77
2024/02/10 07:34:31;;;;;;;2.17;1.83;;;;;;;;;;2074212;28;20090;-75
2024/02/10 07:35:50;;;;;;;2.90;2.00;;;;;;;;;;2074889;28;20120;-80
2024/02/10 07:37:11;;;;;;;2.47;1.90;;;;;;;;;;2074597;28;20022;-78
2024/02/10 07:38:30;;;;;;;2.42;2.05;;;;;;;;;;2074111;28;20026;-78
2024/02/10 07:39:50;;;;;;;2.30;1.73;;;;;;;;;;2065614;28;20031;-77
2024/02/10 07:41:10;;;;;;;3.63;2.08;;;;;;;;;;2070539;28;20120;-77
2024/02/10 07:42:28;;;;;;;3.00;2.00;;;;;;;;;;2074788;28;20073;-79
2024/02/10 07:43:47;;;;;;;4.32;2.20;;;;;;;;;;2075943;28;20061;-77
2024/02/10 07:45:07;;;;;;;5.50;1.92;;;;;;;;;;2072680;28;20029;-76
2024/02/10 07:46:26;;;;;;;3.78;2.25;;;;;;;;;;2072370;28;20038;-79
2024/02/10 07:47:46;;;;;;;3.83;1.80;;;;;;;;;;2072293;28;20664;-75
2024/02/10 07:49:06;;;;;;;2.60;2.13;;;;;;;;;;2059174;28;20062;-82
2024/02/10 07:50:26;;;;;;;2.58;1.98;;;;;;;;;;2053181;28;20022;-76
2024/02/10 07:51:47;;;;;;;2.72;2.00;;;;;;;;;;2069394;28;20108;-76
2024/02/10 07:53:09;;;;;;;4.68;2.28;;;;;;;;;;2066839;28;20121;-77
2024/02/10 07:54:30;;;;;;;3.10;1.70;;;;;;;;;;2066313;28;20026;-77
2024/02/10 07:55:50;;;;;;;2.05;1.85;;;;;;;;;;2067981;28;20078;-79
2024/02/10 07:57:19;;;;;;;2.20;2.00;;;;;;;;;;2066766;28;20034;-76
2024/02/10 07:58:39;;;;;;;6.68;2.25;;;;;;;;;;2065078;28;20030;-78
2024/02/10 08:00:03;;;;;;;2.47;2.00;;;;;;;;;;2062879;28;20062;-80